sensor_id;sensor_type;location;lat;lon;timestamp;temperature;humidity
15426;DHT22;7812;50.072;7.036;2022-08-04T00:00:51;19.60;99.90
15426;DHT22;7812;50.072;7.036;2022-08-04T00:03:27;19.60;99.90
15426;DHT22;7812;50.072;7.036;2022-08-04T00:06:02;19.50;99.90
15426;DHT22;7812;50.072;7.036;2022-08-04T00:10:58;19.40;99.90
15426;DHT22;7812;50.072;7.036;2022-08-04T00:13:26;19.40;99.90
15426;DHT22;7812;50.072;7.036;2022-08-04T00:15:55;19.40;99.90
15426;DHT22;7812;50.072;7.036;2022-08-04T00:18:44;19.40;99.90
15426;DHT22;7812;50.072;7.036;2022-08-04T00:21:18;19.40;99.90
15426;DHT22;7812;50.072;7.036;2022-08-04T00:23:45;19.30;99.90
15426;DHT22;7812;50.072;7.036;2022-08-04T00:26:15;19.30;99.90
15426;DHT22;7812;50.072;7.036;2022-08-04T00:28:42;19.30;99.90
15426;DHT22;7812;50.072;7.036;2022-08-04T00:31:09;19.30;99.90
15426;DHT22;7812;50.072;7.036;2022-08-04T00:33:37;19.10;99.90
15426;DHT22;7812;50.072;7.036;2022-08-04T00:36:03;19.10;99.90
15426;DHT22;7812;50.072;7.036;2022-08-04T00:38:29;19.10;99.90
15426;DHT22;7812;50.072;7.036;2022-08-04T00:41:02;19.00;99.90
15426;DHT22;7812;50.072;7.036;2022-08-04T00:43:32;19.00;99.90
15426;DHT22;7812;50.072;7.036;2022-08-04T00:54:12;18.80;99.90
15426;DHT22;7812;50.072;7.036;2022-08-04T01:16:15;18.50;99.90
15426;DHT22;7812;50.072;7.036;2022-08-04T01:19:02;18.50;99.90
15426;DHT22;7812;50.072;7.036;2022-08-04T01:24:29;18.40;99.90
15426;DHT22;7812;50.072;7.036;2022-08-04T01:29:49;18.40;99.90
15426;DHT22;7812;50.072;7.036;2022-08-04T01:34:45;18.30;99.90
15426;DHT22;7812;50.072;7.036;2022-08-04T01:40:20;18.20;99.90
15426;DHT22;7812;50.072;7.036;2022-08-04T01:42:50;18.30;99.90
15426;DHT22;7812;50.072;7.036;2022-08-04T01:45:17;18.30;99.90
15426;DHT22;7812;50.072;7.036;2022-08-04T01:47:49;18.30;99.90
15426;DHT22;7812;50.072;7.036;2022-08-04T01:50:15;18.20;99.90
15426;DHT22;7812;50.072;7.036;2022-08-04T01:52:43;18.20;99.90
15426;DHT22;7812;50.072;7.036;2022-08-04T01:55:12;18.20;99.90
15426;DHT22;7812;50.072;7.036;2022-08-04T01:57:47;18.20;99.90
15426;DHT22;7812;50.072;7.036;2022-08-04T02:00:15;18.20;99.90
15426;DHT22;7812;50.072;7.036;2022-08-04T02:02:43;18.20;99.90
15426;DHT22;7812;50.072;7.036;2022-08-04T02:05:11;18.20;99.90
15426;DHT22;7812;50.072;7.036;2022-08-04T02:15:35;18.00;99.90
15426;DHT22;7812;50.072;7.036;2022-08-04T02:20:53;17.90;99.90
15426;DHT22;7812;50.072;7.036;2022-08-04T02:23:29;17.90;99.90
15426;DHT22;7812;50.072;7.036;2022-08-04T02:26:06;17.80;99.90
15426;DHT22;7812;50.072;7.036;2022-08-04T02:31:48;17.90;99.90
15426;DHT22;7812;50.072;7.036;2022-08-04T02:34:28;18.00;99.90
15426;DHT22;7812;50.072;7.036;2022-08-04T02:36:55;17.90;99.90
15426;DHT22;7812;50.072;7.036;2022-08-04T02:39:21;17.90;99.90
15426;DHT22;7812;50.072;7.036;2022-08-04T02:41:49;17.90;99.90
15426;DHT22;7812;50.072;7.036;2022-08-04T02:44:20;17.90;99.90
15426;DHT22;7812;50.072;7.036;2022-08-04T02:46:53;17.80;99.90
15426;DHT22;7812;50.072;7.036;2022-08-04T02:49:21;17.80;99.90
15426;DHT22;7812;50.072;7.036;2022-08-04T02:51:50;17.80;99.90
15426;DHT22;7812;50.072;7.036;2022-08-04T02:54:19;17.80;99.90
15426;DHT22;7812;50.072;7.036;2022-08-04T02:56:48;17.80;99.90
15426;DHT22;7812;50.072;7.036;2022-08-04T02:59:16;17.80;99.90
15426;DHT22;7812;50.072;7.036;2022-08-04T03:01:42;17.80;99.90
15426;DHT22;7812;50.072;7.036;2022-08-04T03:23:21;17.60;99.90
15426;DHT22;7812;50.072;7.036;2022-08-04T03:31:30;17.40;99.90
15426;DHT22;7812;50.072;7.036;2022-08-04T03:34:26;17.30;99.90
15426;DHT22;7812;50.072;7.036;2022-08-04T03:59:03;17.10;99.90
15426;DHT22;7812;50.072;7.036;2022-08-04T04:01:59;17.10;99.90
15426;DHT22;7812;50.072;7.036;2022-08-04T04:13:23;17.00;99.90
15426;DHT22;7812;50.072;7.036;2022-08-04T04:16:19;17.10;99.90
15426;DHT22;7812;50.072;7.036;2022-08-04T04:24:45;17.10;99.90
15426;DHT22;7812;50.072;7.036;2022-08-04T04:35:18;17.20;99.90
15426;DHT22;7812;50.072;7.036;2022-08-04T04:51:54;17.30;99.90
15426;DHT22;7812;50.072;7.036;2022-08-04T04:54:29;17.30;99.90
15426;DHT22;7812;50.072;7.036;2022-08-04T04:57:33;17.50;99.90
15426;DHT22;7812;50.072;7.036;2022-08-04T05:00:10;17.60;99.90
15426;DHT22;7812;50.072;7.036;2022-08-04T05:13:44;17.80;99.90
15426;DHT22;7812;50.072;7.036;2022-08-04T05:22:17;17.90;99.90
15426;DHT22;7812;50.072;7.036;2022-08-04T05:24:46;18.00;99.90
15426;DHT22;7812;50.072;7.036;2022-08-04T05:27:18;18.00;99.90
15426;DHT22;7812;50.072;7.036;2022-08-04T05:29:54;18.10;99.90
15426;DHT22;7812;50.072;7.036;2022-08-04T05:32:28;18.40;99.90
15426;DHT22;7812;50.072;7.036;2022-08-04T05:34:59;18.50;99.90
15426;DHT22;7812;50.072;7.036;2022-08-04T05:37:27;18.90;99.90
15426;DHT22;7812;50.072;7.036;2022-08-04T05:40:01;19.20;99.90
15426;DHT22;7812;50.072;7.036;2022-08-04T05:42:30;19.40;99.90
15426;DHT22;7812;50.072;7.036;2022-08-04T05:44:58;19.50;99.90
15426;DHT22;7812;50.072;7.036;2022-08-04T05:47:25;19.80;99.90
15426;DHT22;7812;50.072;7.036;2022-08-04T05:49:53;20.10;99.90
15426;DHT22;7812;50.072;7.036;2022-08-04T05:52:20;20.50;99.90
15426;DHT22;7812;50.072;7.036;2022-08-04T05:54:48;20.70;99.90
15426;DHT22;7812;50.072;7.036;2022-08-04T05:57:15;20.30;99.90
15426;DHT22;7812;50.072;7.036;2022-08-04T05:59:43;20.30;99.90
15426;DHT22;7812;50.072;7.036;2022-08-04T06:02:12;20.60;99.90
15426;DHT22;7812;50.072;7.036;2022-08-04T06:04:41;21.10;99.90
15426;DHT22;7812;50.072;7.036;2022-08-04T06:07:08;21.90;99.90
15426;DHT22;7812;50.072;7.036;2022-08-04T06:09:36;22.40;99.90
15426;DHT22;7812;50.072;7.036;2022-08-04T06:12:08;22.70;99.90
15426;DHT22;7812;50.072;7.036;2022-08-04T06:14:39;22.90;99.90
15426;DHT22;7812;50.072;7.036;2022-08-04T06:17:08;23.40;99.90
15426;DHT22;7812;50.072;7.036;2022-08-04T06:19:34;24.00;99.90
15426;DHT22;7812;50.072;7.036;2022-08-04T06:22:03;24.70;99.90
15426;DHT22;7812;50.072;7.036;2022-08-04T06:24:30;25.20;99.90
15426;DHT22;7812;50.072;7.036;2022-08-04T06:26:57;25.30;99.90
15426;DHT22;7812;50.072;7.036;2022-08-04T06:29:24;25.50;99.90
15426;DHT22;7812;50.072;7.036;2022-08-04T06:32:05;26.00;99.90
15426;DHT22;7812;50.072;7.036;2022-08-04T06:34:56;25.80;99.90
15426;DHT22;7812;50.072;7.036;2022-08-04T06:37:24;26.30;99.90
15426;DHT22;7812;50.072;7.036;2022-08-04T06:39:51;26.70;99.90
15426;DHT22;7812;50.072;7.036;2022-08-04T06:42:23;27.10;99.90
15426;DHT22;7812;50.072;7.036;2022-08-04T06:44:58;27.40;99.90
15426;DHT22;7812;50.072;7.036;2022-08-04T06:47:24;27.00;99.90
15426;DHT22;7812;50.072;7.036;2022-08-04T06:49:52;27.40;99.90
15426;DHT22;7812;50.072;7.036;2022-08-04T06:52:19;27.20;99.90
15426;DHT22;7812;50.072;7.036;2022-08-04T06:54:47;27.80;99.90
15426;DHT22;7812;50.072;7.036;2022-08-04T06:57:16;28.60;99.90
15426;DHT22;7812;50.072;7.036;2022-08-04T06:59:44;29.80;99.90
15426;DHT22;7812;50.072;7.036;2022-08-04T07:02:17;30.90;99.90
15426;DHT22;7812;50.072;7.036;2022-08-04T07:04:46;31.50;99.90
15426;DHT22;7812;50.072;7.036;2022-08-04T07:07:13;31.80;99.90
15426;DHT22;7812;50.072;7.036;2022-08-04T07:09:39;32.20;99.90
15426;DHT22;7812;50.072;7.036;2022-08-04T07:12:06;32.10;99.90
15426;DHT22;7812;50.072;7.036;2022-08-04T07:14:32;32.30;99.90
15426;DHT22;7812;50.072;7.036;2022-08-04T07:17:05;32.10;99.90
15426;DHT22;7812;50.072;7.036;2022-08-04T07:19:33;32.60;99.90
15426;DHT22;7812;50.072;7.036;2022-08-04T07:22:00;32.80;99.90
15426;DHT22;7812;50.072;7.036;2022-08-04T07:24:34;32.50;99.90
15426;DHT22;7812;50.072;7.036;2022-08-04T07:27:00;32.20;99.90
15426;DHT22;7812;50.072;7.036;2022-08-04T07:29:26;31.70;99.90
15426;DHT22;7812;50.072;7.036;2022-08-04T07:31:55;32.70;99.90
15426;DHT22;7812;50.072;7.036;2022-08-04T07:34:23;33.40;99.90
15426;DHT22;7812;50.072;7.036;2022-08-04T07:36:53;33.60;99.90
15426;DHT22;7812;50.072;7.036;2022-08-04T07:39:20;33.80;99.90
15426;DHT22;7812;50.072;7.036;2022-08-04T07:41:46;34.40;99.90
15426;DHT22;7812;50.072;7.036;2022-08-04T07:44:14;34.80;99.90
15426;DHT22;7812;50.072;7.036;2022-08-04T07:46:41;35.80;99.90
15426;DHT22;7812;50.072;7.036;2022-08-04T07:49:08;36.40;99.90
15426;DHT22;7812;50.072;7.036;2022-08-04T07:51:36;36.90;99.40
15426;DHT22;7812;50.072;7.036;2022-08-04T07:54:03;36.80;97.40
15426;DHT22;7812;50.072;7.036;2022-08-04T07:56:30;35.70;97.80
15426;DHT22;7812;50.072;7.036;2022-08-04T07:58:57;35.40;98.30
15426;DHT22;7812;50.072;7.036;2022-08-04T08:01:24;35.10;97.30
15426;DHT22;7812;50.072;7.036;2022-08-04T08:03:52;35.50;97.40
15426;DHT22;7812;50.072;7.036;2022-08-04T08:06:18;35.40;96.50
15426;DHT22;7812;50.072;7.036;2022-08-04T08:08:44;35.80;96.80
15426;DHT22;7812;50.072;7.036;2022-08-04T08:11:10;36.40;96.60
15426;DHT22;7812;50.072;7.036;2022-08-04T08:13:36;36.90;96.00
15426;DHT22;7812;50.072;7.036;2022-08-04T08:16:03;37.90;95.40
15426;DHT22;7812;50.072;7.036;2022-08-04T08:18:30;38.70;94.20
15426;DHT22;7812;50.072;7.036;2022-08-04T08:20:56;39.10;92.80
15426;DHT22;7812;50.072;7.036;2022-08-04T08:23:23;39.70;92.70
15426;DHT22;7812;50.072;7.036;2022-08-04T08:25:59;39.00;92.10
15426;DHT22;7812;50.072;7.036;2022-08-04T08:28:25;40.40;91.50
15426;DHT22;7812;50.072;7.036;2022-08-04T08:30:51;39.60;89.50
15426;DHT22;7812;50.072;7.036;2022-08-04T08:33:17;40.00;89.90
15426;DHT22;7812;50.072;7.036;2022-08-04T08:35:51;40.50;88.30
15426;DHT22;7812;50.072;7.036;2022-08-04T08:38:26;41.30;86.90
15426;DHT22;7812;50.072;7.036;2022-08-04T08:41:10;39.60;85.60
15426;DHT22;7812;50.072;7.036;2022-08-04T09:02:52;41.20;74.40
15426;DHT22;7812;50.072;7.036;2022-08-04T09:10:35;43.10;70.80
15426;DHT22;7812;50.072;7.036;2022-08-04T09:15:44;42.50;69.60
15426;DHT22;7812;50.072;7.036;2022-08-04T09:29:20;43.20;66.50
15426;DHT22;7812;50.072;7.036;2022-08-04T09:34:46;42.20;65.30
15426;DHT22;7812;50.072;7.036;2022-08-04T09:41:20;40.70;66.20
15426;DHT22;7812;50.072;7.036;2022-08-04T09:46:16;41.10;66.20
15426;DHT22;7812;50.072;7.036;2022-08-04T09:49:11;40.80;66.30
15426;DHT22;7812;50.072;7.036;2022-08-04T09:51:52;40.40;66.40
15426;DHT22;7812;50.072;7.036;2022-08-04T09:59:56;42.80;65.00
15426;DHT22;7812;50.072;7.036;2022-08-04T10:02:23;42.30;63.80
15426;DHT22;7812;50.072;7.036;2022-08-04T10:04:50;41.60;64.60
15426;DHT22;7812;50.072;7.036;2022-08-04T10:07:47;40.60;65.20
15426;DHT22;7812;50.072;7.036;2022-08-04T10:18:39;38.30;65.80
15426;DHT22;7812;50.072;7.036;2022-08-04T10:29:21;37.70;67.10
15426;DHT22;7812;50.072;7.036;2022-08-04T10:32:28;37.90;66.30
15426;DHT22;7812;50.072;7.036;2022-08-04T10:35:17;38.20;66.60
15426;DHT22;7812;50.072;7.036;2022-08-04T10:40:31;39.50;65.10
15426;DHT22;7812;50.072;7.036;2022-08-04T10:46:13;38.90;65.70
15426;DHT22;7812;50.072;7.036;2022-08-04T10:53:52;42.10;64.40
15426;DHT22;7812;50.072;7.036;2022-08-04T10:58:59;42.30;61.90
15426;DHT22;7812;50.072;7.036;2022-08-04T11:01:34;41.00;62.10
15426;DHT22;7812;50.072;7.036;2022-08-04T11:04:07;39.60;63.00
15426;DHT22;7812;50.072;7.036;2022-08-04T11:06:35;38.40;63.10
15426;DHT22;7812;50.072;7.036;2022-08-04T11:09:03;38.50;63.90
15426;DHT22;7812;50.072;7.036;2022-08-04T11:11:44;38.60;63.90
15426;DHT22;7812;50.072;7.036;2022-08-04T11:14:35;37.70;63.80
15426;DHT22;7812;50.072;7.036;2022-08-04T11:17:28;37.80;63.50
15426;DHT22;7812;50.072;7.036;2022-08-04T11:20:19;38.00;61.30
15426;DHT22;7812;50.072;7.036;2022-08-04T11:23:11;38.20;61.80
15426;DHT22;7812;50.072;7.036;2022-08-04T11:25:52;38.50;61.80
15426;DHT22;7812;50.072;7.036;2022-08-04T11:31:22;40.60;60.70
15426;DHT22;7812;50.072;7.036;2022-08-04T11:34:15;40.10;59.40
15426;DHT22;7812;50.072;7.036;2022-08-04T11:39:24;39.90;57.60
15426;DHT22;7812;50.072;7.036;2022-08-04T11:41:56;39.70;57.40
15426;DHT22;7812;50.072;7.036;2022-08-04T11:44:28;41.30;56.90
15426;DHT22;7812;50.072;7.036;2022-08-04T11:46:59;41.70;56.10
15426;DHT22;7812;50.072;7.036;2022-08-04T11:49:30;42.70;56.70
15426;DHT22;7812;50.072;7.036;2022-08-04T11:51:59;42.30;55.90
15426;DHT22;7812;50.072;7.036;2022-08-04T11:54:26;40.50;56.60
15426;DHT22;7812;50.072;7.036;2022-08-04T11:56:53;39.80;56.90
15426;DHT22;7812;50.072;7.036;2022-08-04T11:59:21;39.00;57.10
15426;DHT22;7812;50.072;7.036;2022-08-04T12:04:36;38.70;58.30
15426;DHT22;7812;50.072;7.036;2022-08-04T12:15:19;39.90;57.40
15426;DHT22;7812;50.072;7.036;2022-08-04T12:20:27;37.80;57.50
15426;DHT22;7812;50.072;7.036;2022-08-04T12:22:54;37.90;57.40
15426;DHT22;7812;50.072;7.036;2022-08-04T12:25:25;37.90;57.30
15426;DHT22;7812;50.072;7.036;2022-08-04T12:30:22;38.40;56.50
15426;DHT22;7812;50.072;7.036;2022-08-04T12:32:57;37.90;56.60
15426;DHT22;7812;50.072;7.036;2022-08-04T12:38:13;38.10;56.80
15426;DHT22;7812;50.072;7.036;2022-08-04T12:40:49;37.70;57.30
15426;DHT22;7812;50.072;7.036;2022-08-04T12:43:23;36.90;57.90
15426;DHT22;7812;50.072;7.036;2022-08-04T12:45:58;36.70;58.00
15426;DHT22;7812;50.072;7.036;2022-08-04T12:48:26;36.50;58.30
15426;DHT22;7812;50.072;7.036;2022-08-04T12:50:54;36.30;58.30
15426;DHT22;7812;50.072;7.036;2022-08-04T12:53:25;36.10;58.60
15426;DHT22;7812;50.072;7.036;2022-08-04T12:55:52;35.90;58.70
15426;DHT22;7812;50.072;7.036;2022-08-04T12:58:22;35.50;59.30
15426;DHT22;7812;50.072;7.036;2022-08-04T13:01:10;35.30;59.50
15426;DHT22;7812;50.072;7.036;2022-08-04T13:03:46;35.10;59.40
15426;DHT22;7812;50.072;7.036;2022-08-04T13:06:15;35.00;59.70
15426;DHT22;7812;50.072;7.036;2022-08-04T13:08:44;35.10;59.70
15426;DHT22;7812;50.072;7.036;2022-08-04T13:11:11;35.10;60.10
15426;DHT22;7812;50.072;7.036;2022-08-04T13:13:38;35.20;60.30
15426;DHT22;7812;50.072;7.036;2022-08-04T13:16:06;35.30;60.40
15426;DHT22;7812;50.072;7.036;2022-08-04T13:18:36;35.60;60.30
15426;DHT22;7812;50.072;7.036;2022-08-04T13:21:16;35.50;60.20
15426;DHT22;7812;50.072;7.036;2022-08-04T13:23:51;35.40;60.20
15426;DHT22;7812;50.072;7.036;2022-08-04T13:26:17;35.20;60.50
15426;DHT22;7812;50.072;7.036;2022-08-04T13:28:47;35.10;60.80
15426;DHT22;7812;50.072;7.036;2022-08-04T13:31:16;34.90;61.40
15426;DHT22;7812;50.072;7.036;2022-08-04T13:33:46;34.50;61.80
15426;DHT22;7812;50.072;7.036;2022-08-04T13:36:14;34.40;61.80
15426;DHT22;7812;50.072;7.036;2022-08-04T13:38:50;34.40;62.00
15426;DHT22;7812;50.072;7.036;2022-08-04T13:41:17;34.40;62.30
15426;DHT22;7812;50.072;7.036;2022-08-04T13:43:46;34.50;62.00
15426;DHT22;7812;50.072;7.036;2022-08-04T13:46:16;34.60;62.20
15426;DHT22;7812;50.072;7.036;2022-08-04T13:48:43;34.50;62.50
15426;DHT22;7812;50.072;7.036;2022-08-04T13:51:10;34.30;62.60
15426;DHT22;7812;50.072;7.036;2022-08-04T13:53:38;34.30;62.80
15426;DHT22;7812;50.072;7.036;2022-08-04T13:56:08;34.20;62.50
15426;DHT22;7812;50.072;7.036;2022-08-04T13:58:40;34.20;62.40
15426;DHT22;7812;50.072;7.036;2022-08-04T14:01:26;34.20;62.70
15426;DHT22;7812;50.072;7.036;2022-08-04T14:04:02;34.20;63.20
15426;DHT22;7812;50.072;7.036;2022-08-04T14:06:34;34.20;63.00
15426;DHT22;7812;50.072;7.036;2022-08-04T14:11:39;34.10;63.50
15426;DHT22;7812;50.072;7.036;2022-08-04T14:14:20;34.20;63.40
15426;DHT22;7812;50.072;7.036;2022-08-04T14:17:08;34.10;63.20
15426;DHT22;7812;50.072;7.036;2022-08-04T14:19:48;34.10;63.60
15426;DHT22;7812;50.072;7.036;2022-08-04T14:25:06;34.80;62.70
15426;DHT22;7812;50.072;7.036;2022-08-04T14:27:50;35.20;62.20
15426;DHT22;7812;50.072;7.036;2022-08-04T14:30:35;35.50;62.10
15426;DHT22;7812;50.072;7.036;2022-08-04T14:33:11;36.00;61.40
15426;DHT22;7812;50.072;7.036;2022-08-04T14:35:37;36.20;60.80
15426;DHT22;7812;50.072;7.036;2022-08-04T14:40:33;36.10;61.00
15426;DHT22;7812;50.072;7.036;2022-08-04T14:42:59;35.30;61.50
15426;DHT22;7812;50.072;7.036;2022-08-04T14:45:39;35.50;61.40
15426;DHT22;7812;50.072;7.036;2022-08-04T14:48:14;35.90;60.20
15426;DHT22;7812;50.072;7.036;2022-08-04T14:50:47;36.00;59.50
15426;DHT22;7812;50.072;7.036;2022-08-04T14:53:15;36.30;58.10
15426;DHT22;7812;50.072;7.036;2022-08-04T14:55:49;36.20;57.70
15426;DHT22;7812;50.072;7.036;2022-08-04T14:58:19;36.20;57.60
15426;DHT22;7812;50.072;7.036;2022-08-04T15:00:49;36.20;58.10
15426;DHT22;7812;50.072;7.036;2022-08-04T15:03:18;36.30;58.10
15426;DHT22;7812;50.072;7.036;2022-08-04T15:05:48;36.50;58.20
15426;DHT22;7812;50.072;7.036;2022-08-04T15:08:14;36.50;57.20
15426;DHT22;7812;50.072;7.036;2022-08-04T15:10:41;36.70;55.40
15426;DHT22;7812;50.072;7.036;2022-08-04T15:13:07;37.10;55.10
15426;DHT22;7812;50.072;7.036;2022-08-04T15:15:34;37.20;54.90
15426;DHT22;7812;50.072;7.036;2022-08-04T15:18:00;37.40;55.00
15426;DHT22;7812;50.072;7.036;2022-08-04T15:20:28;37.30;55.40
15426;DHT22;7812;50.072;7.036;2022-08-04T15:22:56;37.40;55.90
15426;DHT22;7812;50.072;7.036;2022-08-04T15:25:21;37.30;55.80
15426;DHT22;7812;50.072;7.036;2022-08-04T15:27:48;37.40;55.90
15426;DHT22;7812;50.072;7.036;2022-08-04T15:30:16;37.20;56.10
15426;DHT22;7812;50.072;7.036;2022-08-04T15:32:55;36.90;56.30
15426;DHT22;7812;50.072;7.036;2022-08-04T15:35:25;36.80;56.20
15426;DHT22;7812;50.072;7.036;2022-08-04T15:40:50;36.60;56.40
15426;DHT22;7812;50.072;7.036;2022-08-04T15:44:05;36.10;56.80
15426;DHT22;7812;50.072;7.036;2022-08-04T15:46:11;36.20;56.70
15426;DHT22;7812;50.072;7.036;2022-08-04T15:48:38;36.10;56.70
15426;DHT22;7812;50.072;7.036;2022-08-04T15:51:06;36.00;57.10
15426;DHT22;7812;50.072;7.036;2022-08-04T15:58:51;35.20;57.40
15426;DHT22;7812;50.072;7.036;2022-08-04T16:01:17;35.10;57.70
15426;DHT22;7812;50.072;7.036;2022-08-04T16:03:44;35.10;57.90
15426;DHT22;7812;50.072;7.036;2022-08-04T16:21:52;35.10;60.10
15426;DHT22;7812;50.072;7.036;2022-08-04T16:27:01;34.80;59.40
15426;DHT22;7812;50.072;7.036;2022-08-04T16:34:40;34.50;60.40
15426;DHT22;7812;50.072;7.036;2022-08-04T16:37:09;34.50;59.50
15426;DHT22;7812;50.072;7.036;2022-08-04T16:39:36;34.40;60.60
15426;DHT22;7812;50.072;7.036;2022-08-04T16:44:59;34.50;61.10
15426;DHT22;7812;50.072;7.036;2022-08-04T16:52:44;34.40;61.70
15426;DHT22;7812;50.072;7.036;2022-08-04T16:55:11;34.50;62.10
15426;DHT22;7812;50.072;7.036;2022-08-04T16:57:39;34.40;62.80
15426;DHT22;7812;50.072;7.036;2022-08-04T17:00:06;34.30;62.80
15426;DHT22;7812;50.072;7.036;2022-08-04T17:02:33;34.30;62.60
15426;DHT22;7812;50.072;7.036;2022-08-04T17:04:59;34.30;62.40
15426;DHT22;7812;50.072;7.036;2022-08-04T17:07:26;34.30;64.60
15426;DHT22;7812;50.072;7.036;2022-08-04T17:09:51;33.80;67.90
15426;DHT22;7812;50.072;7.036;2022-08-04T17:12:17;33.30;69.50
15426;DHT22;7812;50.072;7.036;2022-08-04T17:14:43;33.00;71.40
15426;DHT22;7812;50.072;7.036;2022-08-04T17:17:09;32.60;74.20
15426;DHT22;7812;50.072;7.036;2022-08-04T17:19:35;32.40;76.70
15426;DHT22;7812;50.072;7.036;2022-08-04T17:22:04;32.20;77.80
15426;DHT22;7812;50.072;7.036;2022-08-04T17:24:36;31.90;78.80
15426;DHT22;7812;50.072;7.036;2022-08-04T17:27:03;31.50;79.90
15426;DHT22;7812;50.072;7.036;2022-08-04T17:29:29;31.40;80.50
15426;DHT22;7812;50.072;7.036;2022-08-04T17:31:55;31.50;81.00
15426;DHT22;7812;50.072;7.036;2022-08-04T17:34:21;31.40;81.40
15426;DHT22;7812;50.072;7.036;2022-08-04T17:36:50;31.30;81.90
15426;DHT22;7812;50.072;7.036;2022-08-04T17:39:18;31.30;82.00
15426;DHT22;7812;50.072;7.036;2022-08-04T17:41:45;31.20;82.50
15426;DHT22;7812;50.072;7.036;2022-08-04T17:44:11;31.20;82.70
15426;DHT22;7812;50.072;7.036;2022-08-04T17:46:42;31.10;83.00
15426;DHT22;7812;50.072;7.036;2022-08-04T17:54:18;31.10;83.80
15426;DHT22;7812;50.072;7.036;2022-08-04T17:56:49;31.00;84.40
15426;DHT22;7812;50.072;7.036;2022-08-04T17:59:28;30.90;85.00
15426;DHT22;7812;50.072;7.036;2022-08-04T18:01:59;30.50;85.90
15426;DHT22;7812;50.072;7.036;2022-08-04T18:07:12;30.40;87.00
15426;DHT22;7812;50.072;7.036;2022-08-04T18:09:52;30.40;87.50
15426;DHT22;7812;50.072;7.036;2022-08-04T18:12:26;30.30;87.40
15426;DHT22;7812;50.072;7.036;2022-08-04T18:14:54;30.30;88.00
15426;DHT22;7812;50.072;7.036;2022-08-04T18:17:41;30.30;88.50
15426;DHT22;7812;50.072;7.036;2022-08-04T18:20:14;30.20;88.80
15426;DHT22;7812;50.072;7.036;2022-08-04T18:22:41;30.10;89.20
15426;DHT22;7812;50.072;7.036;2022-08-04T18:25:11;30.00;89.30
15426;DHT22;7812;50.072;7.036;2022-08-04T18:27:52;30.00;89.90
15426;DHT22;7812;50.072;7.036;2022-08-04T18:30:19;29.90;90.10
15426;DHT22;7812;50.072;7.036;2022-08-04T18:32:45;29.80;90.40
15426;DHT22;7812;50.072;7.036;2022-08-04T18:35:11;29.70;90.30
15426;DHT22;7812;50.072;7.036;2022-08-04T18:37:38;29.70;90.40
15426;DHT22;7812;50.072;7.036;2022-08-04T18:40:05;29.60;90.50
15426;DHT22;7812;50.072;7.036;2022-08-04T18:42:31;29.60;90.70
15426;DHT22;7812;50.072;7.036;2022-08-04T18:44:57;29.50;90.90
15426;DHT22;7812;50.072;7.036;2022-08-04T18:47:23;29.40;91.40
15426;DHT22;7812;50.072;7.036;2022-08-04T18:49:52;29.20;91.80
15426;DHT22;7812;50.072;7.036;2022-08-04T18:52:18;29.10;92.10
15426;DHT22;7812;50.072;7.036;2022-08-04T18:54:44;28.90;92.50
15426;DHT22;7812;50.072;7.036;2022-08-04T18:57:10;28.80;92.80
15426;DHT22;7812;50.072;7.036;2022-08-04T18:59:37;28.70;93.10
15426;DHT22;7812;50.072;7.036;2022-08-04T19:02:03;28.60;93.30
15426;DHT22;7812;50.072;7.036;2022-08-04T19:04:29;28.50;93.70
15426;DHT22;7812;50.072;7.036;2022-08-04T19:06:54;28.40;94.10
15426;DHT22;7812;50.072;7.036;2022-08-04T19:09:20;28.30;94.50
15426;DHT22;7812;50.072;7.036;2022-08-04T19:11:47;28.20;95.00
15426;DHT22;7812;50.072;7.036;2022-08-04T19:14:13;28.10;95.70
15426;DHT22;7812;50.072;7.036;2022-08-04T19:16:39;28.00;95.90
15426;DHT22;7812;50.072;7.036;2022-08-04T19:19:05;27.90;96.00
15426;DHT22;7812;50.072;7.036;2022-08-04T19:21:31;27.80;96.90
15426;DHT22;7812;50.072;7.036;2022-08-04T19:23:58;27.60;97.20
15426;DHT22;7812;50.072;7.036;2022-08-04T19:26:23;27.50;98.10
15426;DHT22;7812;50.072;7.036;2022-08-04T19:28:50;27.40;98.50
15426;DHT22;7812;50.072;7.036;2022-08-04T19:31:17;27.30;99.20
15426;DHT22;7812;50.072;7.036;2022-08-04T19:33:43;27.10;99.90
15426;DHT22;7812;50.072;7.036;2022-08-04T19:36:09;27.00;99.90
15426;DHT22;7812;50.072;7.036;2022-08-04T19:38:36;26.90;99.90
15426;DHT22;7812;50.072;7.036;2022-08-04T19:41:02;26.80;99.90
15426;DHT22;7812;50.072;7.036;2022-08-04T19:43:29;26.80;99.90
15426;DHT22;7812;50.072;7.036;2022-08-04T19:45:55;26.70;99.90
15426;DHT22;7812;50.072;7.036;2022-08-04T19:48:21;26.70;99.90
15426;DHT22;7812;50.072;7.036;2022-08-04T19:50:47;26.50;99.90
15426;DHT22;7812;50.072;7.036;2022-08-04T19:53:13;26.40;99.90
15426;DHT22;7812;50.072;7.036;2022-08-04T19:55:40;26.30;99.90
15426;DHT22;7812;50.072;7.036;2022-08-04T19:58:06;26.10;99.90
15426;DHT22;7812;50.072;7.036;2022-08-04T20:00:32;26.00;99.90
15426;DHT22;7812;50.072;7.036;2022-08-04T20:02:59;25.90;99.90
15426;DHT22;7812;50.072;7.036;2022-08-04T20:05:25;25.90;99.90
15426;DHT22;7812;50.072;7.036;2022-08-04T20:07:51;25.90;99.90
15426;DHT22;7812;50.072;7.036;2022-08-04T20:10:17;25.90;99.90
15426;DHT22;7812;50.072;7.036;2022-08-04T20:12:43;25.80;99.90
15426;DHT22;7812;50.072;7.036;2022-08-04T20:15:09;25.60;99.90
15426;DHT22;7812;50.072;7.036;2022-08-04T20:17:35;25.50;99.90
15426;DHT22;7812;50.072;7.036;2022-08-04T20:20:05;25.40;99.90
15426;DHT22;7812;50.072;7.036;2022-08-04T20:22:31;25.30;99.90
15426;DHT22;7812;50.072;7.036;2022-08-04T20:24:57;25.20;99.90
15426;DHT22;7812;50.072;7.036;2022-08-04T20:27:23;25.20;99.90
15426;DHT22;7812;50.072;7.036;2022-08-04T20:29:50;25.10;99.90
15426;DHT22;7812;50.072;7.036;2022-08-04T20:32:18;25.10;99.90
15426;DHT22;7812;50.072;7.036;2022-08-04T20:34:50;25.10;99.90
15426;DHT22;7812;50.072;7.036;2022-08-04T20:37:17;25.00;99.90
15426;DHT22;7812;50.072;7.036;2022-08-04T20:39:42;25.00;99.90
15426;DHT22;7812;50.072;7.036;2022-08-04T20:42:08;24.80;99.90
15426;DHT22;7812;50.072;7.036;2022-08-04T20:44:34;24.80;99.90
15426;DHT22;7812;50.072;7.036;2022-08-04T20:47:00;24.70;99.90
15426;DHT22;7812;50.072;7.036;2022-08-04T20:49:26;24.70;99.90
15426;DHT22;7812;50.072;7.036;2022-08-04T20:51:51;24.60;99.90
15426;DHT22;7812;50.072;7.036;2022-08-04T20:54:19;24.50;99.90
15426;DHT22;7812;50.072;7.036;2022-08-04T20:56:45;24.50;99.90
15426;DHT22;7812;50.072;7.036;2022-08-04T20:59:11;24.40;99.90
15426;DHT22;7812;50.072;7.036;2022-08-04T21:01:36;24.40;99.90
15426;DHT22;7812;50.072;7.036;2022-08-04T21:04:02;24.40;99.90
15426;DHT22;7812;50.072;7.036;2022-08-04T21:06:46;24.30;99.90
15426;DHT22;7812;50.072;7.036;2022-08-04T21:09:12;24.20;99.90
15426;DHT22;7812;50.072;7.036;2022-08-04T21:11:38;24.20;99.90
15426;DHT22;7812;50.072;7.036;2022-08-04T21:14:03;24.20;99.90
15426;DHT22;7812;50.072;7.036;2022-08-04T21:16:29;24.20;99.90
15426;DHT22;7812;50.072;7.036;2022-08-04T21:18:55;24.10;99.90
15426;DHT22;7812;50.072;7.036;2022-08-04T21:21:20;24.10;99.90
15426;DHT22;7812;50.072;7.036;2022-08-04T21:23:46;24.10;99.90